sensor_id;sensor_type;location;lat;lon;timestamp;temperature;humidity
22674;DHT22;11504;43.334;21.918;2023-12-20T00:01:57;3.8;100.0
22674;DHT22;11504;43.334;21.918;2023-12-20T00:06:34;3.7;100.0
22674;DHT22;11504;43.334;21.918;2023-12-20T00:11:10;3.7;100.0
22674;DHT22;11504;43.334;21.918;2023-12-20T00:15:47;3.8;100.0
22674;DHT22;11504;43.334;21.918;2023-12-20T00:20:23;3.8;100.0
22674;DHT22;11504;43.334;21.918;2023-12-20T00:24:59;3.9;100.0
22674;DHT22;11504;43.334;21.918;2023-12-20T00:29:35;3.9;100.0
22674;DHT22;11504;43.334;21.918;2023-12-20T00:34:12;3.8;100.0
22674;DHT22;11504;43.334;21.918;2023-12-20T00:38:48;3.8;100.0
22674;DHT22;11504;43.334;21.918;2023-12-20T00:43:24;3.8;100.0
22674;DHT22;11504;43.334;21.918;2023-12-20T00:48:01;3.8;100.0
22674;DHT22;11504;43.334;21.918;2023-12-20T00:52:37;3.8;100.0
22674;DHT22;11504;43.334;21.918;2023-12-20T00:57:14;3.7;100.0
22674;DHT22;11504;43.334;21.918;2023-12-20T01:01:50;3.7;100.0
22674;DHT22;11504;43.334;21.918;2023-12-20T01:06:27;3.6;100.0
22674;DHT22;11504;43.334;21.918;2023-12-20T01:11:04;3.6;100.0
22674;DHT22;11504;43.334;21.918;2023-12-20T01:15:42;3.6;100.0
22674;DHT22;11504;43.334;21.918;2023-12-20T01:20:18;3.6;100.0
22674;DHT22;11504;43.334;21.918;2023-12-20T01:24:54;3.5;100.0
22674;DHT22;11504;43.334;21.918;2023-12-20T01:29:30;3.5;100.0
22674;DHT22;11504;43.334;21.918;2023-12-20T01:34:07;3.4;100.0
22674;DHT22;11504;43.334;21.918;2023-12-20T01:38:43;3.4;100.0
22674;DHT22;11504;43.334;21.918;2023-12-20T01:43:19;3.4;100.0
22674;DHT22;11504;43.334;21.918;2023-12-20T01:47:59;3.3;100.0
22674;DHT22;11504;43.334;21.918;2023-12-20T01:52:38;3.3;100.0
22674;DHT22;11504;43.334;21.918;2023-12-20T01:57:15;3.4;100.0
22674;DHT22;11504;43.334;21.918;2023-12-20T02:01:51;3.4;100.0
22674;DHT22;11504;43.334;21.918;2023-12-20T02:06:30;3.4;100.0
22674;DHT22;11504;43.334;21.918;2023-12-20T02:11:10;3.4;100.0
22674;DHT22;11504;43.334;21.918;2023-12-20T02:15:46;3.4;100.0
22674;DHT22;11504;43.334;21.918;2023-12-20T02:20:23;3.4;100.0
22674;DHT22;11504;43.334;21.918;2023-12-20T02:24:59;3.5;100.0
22674;DHT22;11504;43.334;21.918;2023-12-20T02:29:36;3.5;100.0
22674;DHT22;11504;43.334;21.918;2023-12-20T02:34:12;3.6;100.0
22674;DHT22;11504;43.334;21.918;2023-12-20T02:38:49;3.6;100.0
22674;DHT22;11504;43.334;21.918;2023-12-20T02:43:25;3.6;100.0
22674;DHT22;11504;43.334;21.918;2023-12-20T02:48:03;3.6;100.0
22674;DHT22;11504;43.334;21.918;2023-12-20T02:52:44;3.6;100.0
22674;DHT22;11504;43.334;21.918;2023-12-20T02:57:21;3.4;100.0
22674;DHT22;11504;43.334;21.918;2023-12-20T03:01:57;3.4;100.0
22674;DHT22;11504;43.334;21.918;2023-12-20T03:06:33;3.1;100.0
22674;DHT22;11504;43.334;21.918;2023-12-20T03:11:10;3.1;100.0
22674;DHT22;11504;43.334;21.918;2023-12-20T03:15:47;3.0;100.0
22674;DHT22;11504;43.334;21.918;2023-12-20T03:20:23;3.0;100.0
22674;DHT22;11504;43.334;21.918;2023-12-20T03:25:00;2.8;100.0
22674;DHT22;11504;43.334;21.918;2023-12-20T03:29:36;2.8;100.0
22674;DHT22;11504;43.334;21.918;2023-12-20T03:34:12;2.8;100.0
22674;DHT22;11504;43.334;21.918;2023-12-20T03:38:49;2.8;100.0
22674;DHT22;11504;43.334;21.918;2023-12-20T03:43:25;2.8;100.0
22674;DHT22;11504;43.334;21.918;2023-12-20T03:48:01;2.8;100.0
22674;DHT22;11504;43.334;21.918;2023-12-20T03:52:38;2.8;100.0
22674;DHT22;11504;43.334;21.918;2023-12-20T03:57:14;2.9;100.0
22674;DHT22;11504;43.334;21.918;2023-12-20T04:01:50;2.9;100.0
22674;DHT22;11504;43.334;21.918;2023-12-20T04:06:27;3.0;100.0
22674;DHT22;11504;43.334;21.918;2023-12-20T04:11:07;3.0;100.0
22674;DHT22;11504;43.334;21.918;2023-12-20T04:15:43;3.0;100.0
22674;DHT22;11504;43.334;21.918;2023-12-20T04:20:20;3.0;100.0
22674;DHT22;11504;43.334;21.918;2023-12-20T04:24:56;2.9;100.0
22674;DHT22;11504;43.334;21.918;2023-12-20T04:29:32;2.9;100.0
22674;DHT22;11504;43.334;21.918;2023-12-20T04:34:09;2.9;100.0
22674;DHT22;11504;43.334;21.918;2023-12-20T04:38:45;2.9;100.0
22674;DHT22;11504;43.334;21.918;2023-12-20T04:43:21;2.9;100.0
22674;DHT22;11504;43.334;21.918;2023-12-20T04:47:58;2.9;100.0
22674;DHT22;11504;43.334;21.918;2023-12-20T04:52:34;2.9;100.0
22674;DHT22;11504;43.334;21.918;2023-12-20T04:57:11;3.0;100.0
22674;DHT22;11504;43.334;21.918;2023-12-20T05:01:47;3.0;100.0
22674;DHT22;11504;43.334;21.918;2023-12-20T05:06:24;3.0;100.0
22674;DHT22;11504;43.334;21.918;2023-12-20T05:11:00;3.0;100.0
22674;DHT22;11504;43.334;21.918;2023-12-20T05:15:37;3.1;100.0
22674;DHT22;11504;43.334;21.918;2023-12-20T05:20:14;3.1;100.0
22674;DHT22;11504;43.334;21.918;2023-12-20T05:24:50;3.2;100.0
22674;DHT22;11504;43.334;21.918;2023-12-20T05:29:26;3.2;100.0
22674;DHT22;11504;43.334;21.918;2023-12-20T05:34:03;3.4;100.0
22674;DHT22;11504;43.334;21.918;2023-12-20T05:38:39;3.4;100.0
22674;DHT22;11504;43.334;21.918;2023-12-20T05:43:16;3.4;100.0
22674;DHT22;11504;43.334;21.918;2023-12-20T05:47:52;3.5;100.0
22674;DHT22;11504;43.334;21.918;2023-12-20T05:52:28;3.5;100.0
22674;DHT22;11504;43.334;21.918;2023-12-20T05:57:05;3.6;100.0
22674;DHT22;11504;43.334;21.918;2023-12-20T06:01:41;3.6;100.0
22674;DHT22;11504;43.334;21.918;2023-12-20T06:06:17;3.7;100.0
22674;DHT22;11504;43.334;21.918;2023-12-20T06:10:53;3.7;100.0
22674;DHT22;11504;43.334;21.918;2023-12-20T06:15:30;3.8;100.0
22674;DHT22;11504;43.334;21.918;2023-12-20T06:20:10;3.8;100.0
22674;DHT22;11504;43.334;21.918;2023-12-20T06:24:46;3.8;100.0
22674;DHT22;11504;43.334;21.918;2023-12-20T06:29:23;3.8;100.0
22674;DHT22;11504;43.334;21.918;2023-12-20T06:33:59;3.8;100.0
22674;DHT22;11504;43.334;21.918;2023-12-20T06:38:36;3.8;100.0
22674;DHT22;11504;43.334;21.918;2023-12-20T06:43:13;3.8;100.0
22674;DHT22;11504;43.334;21.918;2023-12-20T06:47:49;3.8;100.0
22674;DHT22;11504;43.334;21.918;2023-12-20T06:52:26;3.8;100.0
22674;DHT22;11504;43.334;21.918;2023-12-20T06:57:03;4.0;100.0
22674;DHT22;11504;43.334;21.918;2023-12-20T07:01:40;4.0;100.0
22674;DHT22;11504;43.334;21.918;2023-12-20T07:06:16;4.2;100.0
22674;DHT22;11504;43.334;21.918;2023-12-20T07:10:52;4.2;100.0
22674;DHT22;11504;43.334;21.918;2023-12-20T07:15:29;4.4;100.0
22674;DHT22;11504;43.334;21.918;2023-12-20T07:20:08;4.4;100.0
22674;DHT22;11504;43.334;21.918;2023-12-20T07:24:46;4.7;100.0
22674;DHT22;11504;43.334;21.918;2023-12-20T07:29:22;4.7;100.0
22674;DHT22;11504;43.334;21.918;2023-12-20T07:33:58;4.7;100.0
22674;DHT22;11504;43.334;21.918;2023-12-20T07:38:35;5.0;100.0
22674;DHT22;11504;43.334;21.918;2023-12-20T07:43:11;5.0;100.0
22674;DHT22;11504;43.334;21.918;2023-12-20T07:47:47;5.3;100.0
22674;DHT22;11504;43.334;21.918;2023-12-20T07:52:23;5.3;100.0
22674;DHT22;11504;43.334;21.918;2023-12-20T07:56:59;6.6;100.0
22674;DHT22;11504;43.334;21.918;2023-12-20T08:01:36;6.6;100.0
22674;DHT22;11504;43.334;21.918;2023-12-20T08:06:12;7.8;100.0
22674;DHT22;11504;43.334;21.918;2023-12-20T08:10:48;7.8;100.0
22674;DHT22;11504;43.334;21.918;2023-12-20T08:15:25;9.7;100.0
22674;DHT22;11504;43.334;21.918;2023-12-20T08:20:06;9.7;100.0
22674;DHT22;11504;43.334;21.918;2023-12-20T08:24:44;11.6;100.0
22674;DHT22;11504;43.334;21.918;2023-12-20T08:29:20;11.6;100.0
22674;DHT22;11504;43.334;21.918;2023-12-20T08:33:56;11.6;100.0
22674;DHT22;11504;43.334;21.918;2023-12-20T08:38:33;11.4;100.0
22674;DHT22;11504;43.334;21.918;2023-12-20T08:43:10;11.4;100.0
22674;DHT22;11504;43.334;21.918;2023-12-20T08:47:46;11.3;100.0
22674;DHT22;11504;43.334;21.918;2023-12-20T08:52:23;11.3;100.0
22674;DHT22;11504;43.334;21.918;2023-12-20T08:56:59;10.4;100.0
22674;DHT22;11504;43.334;21.918;2023-12-20T09:01:35;10.4;100.0
22674;DHT22;11504;43.334;21.918;2023-12-20T09:06:11;9.4;100.0
22674;DHT22;11504;43.334;21.918;2023-12-20T09:10:48;9.4;100.0
22674;DHT22;11504;43.334;21.918;2023-12-20T09:15:26;9.0;100.0
22674;DHT22;11504;43.334;21.918;2023-12-20T09:20:05;9.0;100.0
22674;DHT22;11504;43.334;21.918;2023-12-20T09:24:43;8.7;100.0
22674;DHT22;11504;43.334;21.918;2023-12-20T09:29:19;8.7;100.0
22674;DHT22;11504;43.334;21.918;2023-12-20T09:33:56;8.7;100.0
22674;DHT22;11504;43.334;21.918;2023-12-20T09:38:32;8.8;100.0
22674;DHT22;11504;43.334;21.918;2023-12-20T09:43:15;8.8;100.0
22674;DHT22;11504;43.334;21.918;2023-12-20T09:47:58;8.8;100.0
22674;DHT22;11504;43.334;21.918;2023-12-20T09:52:39;8.8;100.0
22674;DHT22;11504;43.334;21.918;2023-12-20T09:57:19;9.2;100.0
22674;DHT22;11504;43.334;21.918;2023-12-20T10:01:57;9.2;100.0
22674;DHT22;11504;43.334;21.918;2023-12-20T10:06:37;9.6;100.0
22674;DHT22;11504;43.334;21.918;2023-12-20T10:11:15;9.6;100.0
22674;DHT22;11504;43.334;21.918;2023-12-20T10:15:52;9.8;100.0
22674;DHT22;11504;43.334;21.918;2023-12-20T10:20:29;9.8;100.0
22674;DHT22;11504;43.334;21.918;2023-12-20T10:25:08;10.0;100.0
22674;DHT22;11504;43.334;21.918;2023-12-20T10:29:44;10.0;100.0
22674;DHT22;11504;43.334;21.918;2023-12-20T10:34:21;9.8;100.0
22674;DHT22;11504;43.334;21.918;2023-12-20T10:38:59;9.8;100.0
22674;DHT22;11504;43.334;21.918;2023-12-20T10:43:40;9.8;100.0
22674;DHT22;11504;43.334;21.918;2023-12-20T10:48:19;9.5;100.0
22674;DHT22;11504;43.334;21.918;2023-12-20T10:52:59;9.5;100.0
22674;DHT22;11504;43.334;21.918;2023-12-20T10:57:36;9.4;100.0
22674;DHT22;11504;43.334;21.918;2023-12-20T11:02:14;9.4;100.0
22674;DHT22;11504;43.334;21.918;2023-12-20T11:07:17;9.4;100.0
22674;DHT22;11504;43.334;21.918;2023-12-20T11:12:20;9.4;100.0
22674;DHT22;11504;43.334;21.918;2023-12-20T11:17:17;9.5;100.0
22674;DHT22;11504;43.334;21.918;2023-12-20T11:21:53;9.5;100.0
22674;DHT22;11504;43.334;21.918;2023-12-20T11:26:30;9.6;100.0
22674;DHT22;11504;43.334;21.918;2023-12-20T11:31:06;9.6;100.0
22674;DHT22;11504;43.334;21.918;2023-12-20T11:35:46;9.9;100.0
22674;DHT22;11504;43.334;21.918;2023-12-20T11:40:23;9.9;100.0
22674;DHT22;11504;43.334;21.918;2023-12-20T11:45:02;10.2;100.0
22674;DHT22;11504;43.334;21.918;2023-12-20T11:49:40;10.2;100.0
22674;DHT22;11504;43.334;21.918;2023-12-20T11:54:16;10.2;100.0
22674;DHT22;11504;43.334;21.918;2023-12-20T11:58:53;10.4;100.0
22674;DHT22;11504;43.334;21.918;2023-12-20T12:03:31;10.4;100.0
22674;DHT22;11504;43.334;21.918;2023-12-20T12:08:08;10.5;100.0
22674;DHT22;11504;43.334;21.918;2023-12-20T12:12:44;10.5;100.0
22674;DHT22;11504;43.334;21.918;2023-12-20T12:17:21;10.4;100.0
22674;DHT22;11504;43.334;21.918;2023-12-20T12:22:10;10.4;100.0
22674;DHT22;11504;43.334;21.918;2023-12-20T12:26:51;10.4;100.0
22674;DHT22;11504;43.334;21.918;2023-12-20T12:31:28;10.4;100.0
22674;DHT22;11504;43.334;21.918;2023-12-20T12:36:07;10.4;100.0
22674;DHT22;11504;43.334;21.918;2023-12-20T12:40:44;10.4;100.0
22674;DHT22;11504;43.334;21.918;2023-12-20T12:45:20;10.3;100.0
22674;DHT22;11504;43.334;21.918;2023-12-20T12:49:56;10.3;100.0
22674;DHT22;11504;43.334;21.918;2023-12-20T12:54:33;10.3;100.0
22674;DHT22;11504;43.334;21.918;2023-12-20T12:59:09;10.3;100.0
22674;DHT22;11504;43.334;21.918;2023-12-20T13:03:45;10.3;100.0
22674;DHT22;11504;43.334;21.918;2023-12-20T13:08:22;10.3;100.0
22674;DHT22;11504;43.334;21.918;2023-12-20T13:12:59;10.3;100.0
22674;DHT22;11504;43.334;21.918;2023-12-20T13:17:35;10.5;100.0
22674;DHT22;11504;43.334;21.918;2023-12-20T13:22:11;10.5;100.0
22674;DHT22;11504;43.334;21.918;2023-12-20T13:26:48;10.7;100.0
22674;DHT22;11504;43.334;21.918;2023-12-20T13:31:24;10.7;100.0
22674;DHT22;11504;43.334;21.918;2023-12-20T13:36:01;10.8;100.0
22674;DHT22;11504;43.334;21.918;2023-12-20T13:40:38;10.8;100.0
22674;DHT22;11504;43.334;21.918;2023-12-20T13:45:15;10.9;100.0
22674;DHT22;11504;43.334;21.918;2023-12-20T13:49:52;10.9;100.0
22674;DHT22;11504;43.334;21.918;2023-12-20T13:54:28;10.9;100.0
22674;DHT22;11504;43.334;21.918;2023-12-20T13:59:05;10.9;100.0
22674;DHT22;11504;43.334;21.918;2023-12-20T14:03:41;10.9;100.0
22674;DHT22;11504;43.334;21.918;2023-12-20T14:08:17;10.8;100.0
22674;DHT22;11504;43.334;21.918;2023-12-20T14:12:54;10.8;100.0
22674;DHT22;11504;43.334;21.918;2023-12-20T14:17:31;10.8;100.0
22674;DHT22;11504;43.334;21.918;2023-12-20T14:22:07;10.8;100.0
22674;DHT22;11504;43.334;21.918;2023-12-20T14:26:43;10.8;100.0
22674;DHT22;11504;43.334;21.918;2023-12-20T14:31:19;10.8;100.0
22674;DHT22;11504;43.334;21.918;2023-12-20T14:35:56;10.7;100.0
22674;DHT22;11504;43.334;21.918;2023-12-20T14:40:32;10.7;100.0
22674;DHT22;11504;43.334;21.918;2023-12-20T14:45:10;10.6;100.0
22674;DHT22;11504;43.334;21.918;2023-12-20T14:49:48;10.6;100.0
22674;DHT22;11504;43.334;21.918;2023-12-20T14:54:24;10.6;100.0
22674;DHT22;11504;43.334;21.918;2023-12-20T14:59:01;10.4;100.0
22674;DHT22;11504;43.334;21.918;2023-12-20T15:03:37;10.4;100.0
22674;DHT22;11504;43.334;21.918;2023-12-20T15:08:14;10.3;100.0
22674;DHT22;11504;43.334;21.918;2023-12-20T15:12:51;10.3;100.0
22674;DHT22;11504;43.334;21.918;2023-12-20T15:17:27;10.2;100.0
22674;DHT22;11504;43.334;21.918;2023-12-20T15:22:03;10.2;100.0
22674;DHT22;11504;43.334;21.918;2023-12-20T15:26:42;10.1;100.0
22674;DHT22;11504;43.334;21.918;2023-12-20T15:31:19;10.1;100.0
22674;DHT22;11504;43.334;21.918;2023-12-20T15:35:55;10.0;100.0
22674;DHT22;11504;43.334;21.918;2023-12-20T15:40:31;10.0;100.0
22674;DHT22;11504;43.334;21.918;2023-12-20T15:45:09;9.8;100.0
22674;DHT22;11504;43.334;21.918;2023-12-20T15:49:46;9.8;100.0
22674;DHT22;11504;43.334;21.918;2023-12-20T15:54:22;9.8;100.0
22674;DHT22;11504;43.334;21.918;2023-12-20T15:58:58;9.6;100.0
22674;DHT22;11504;43.334;21.918;2023-12-20T16:03:35;9.6;100.0
22674;DHT22;11504;43.334;21.918;2023-12-20T16:08:12;9.4;100.0
22674;DHT22;11504;43.334;21.918;2023-12-20T16:12:48;9.4;100.0
22674;DHT22;11504;43.334;21.918;2023-12-20T16:17:25;9.2;100.0
22674;DHT22;11504;43.334;21.918;2023-12-20T16:22:01;9.2;100.0
22674;DHT22;11504;43.334;21.918;2023-12-20T16:26:37;9.1;100.0
22674;DHT22;11504;43.334;21.918;2023-12-20T16:31:14;9.1;100.0
22674;DHT22;11504;43.334;21.918;2023-12-20T16:35:50;8.9;100.0
22674;DHT22;11504;43.334;21.918;2023-12-20T16:40:27;8.9;100.0
22674;DHT22;11504;43.334;21.918;2023-12-20T16:45:06;8.7;100.0
22674;DHT22;11504;43.334;21.918;2023-12-20T16:49:44;8.7;100.0
22674;DHT22;11504;43.334;21.918;2023-12-20T16:54:20;8.7;100.0
22674;DHT22;11504;43.334;21.918;2023-12-20T16:58:56;8.7;100.0
22674;DHT22;11504;43.334;21.918;2023-12-20T17:03:33;8.7;100.0
22674;DHT22;11504;43.334;21.918;2023-12-20T17:08:09;8.7;100.0
22674;DHT22;11504;43.334;21.918;2023-12-20T17:12:45;8.7;100.0
22674;DHT22;11504;43.334;21.918;2023-12-20T17:17:21;8.5;100.0
22674;DHT22;11504;43.334;21.918;2023-12-20T17:21:58;8.5;100.0
22674;DHT22;11504;43.334;21.918;2023-12-20T17:26:34;8.3;100.0
22674;DHT22;11504;43.334;21.918;2023-12-20T17:31:11;8.3;100.0
22674;DHT22;11504;43.334;21.918;2023-12-20T17:35:47;8.2;100.0
22674;DHT22;11504;43.334;21.918;2023-12-20T17:40:24;8.2;100.0
22674;DHT22;11504;43.334;21.918;2023-12-20T17:45:00;8.0;100.0
22674;DHT22;11504;43.334;21.918;2023-12-20T17:49:36;8.0;100.0
22674;DHT22;11504;43.334;21.918;2023-12-20T17:54:13;8.0;100.0
22674;DHT22;11504;43.334;21.918;2023-12-20T17:58:50;8.0;100.0
22674;DHT22;11504;43.334;21.918;2023-12-20T18:03:26;8.0;100.0
22674;DHT22;11504;43.334;21.918;2023-12-20T18:08:04;8.0;100.0
22674;DHT22;11504;43.334;21.918;2023-12-20T18:12:41;8.0;100.0
22674;DHT22;11504;43.334;21.918;2023-12-20T18:17:18;8.0;100.0
22674;DHT22;11504;43.334;21.918;2023-12-20T18:21:55;8.0;100.0
22674;DHT22;11504;43.334;21.918;2023-12-20T18:26:31;7.9;100.0
22674;DHT22;11504;43.334;21.918;2023-12-20T18:31:07;7.9;100.0
22674;DHT22;11504;43.334;21.918;2023-12-20T18:35:44;7.8;100.0
22674;DHT22;11504;43.334;21.918;2023-12-20T18:40:20;7.8;100.0
22674;DHT22;11504;43.334;21.918;2023-12-20T18:44:57;7.6;100.0
22674;DHT22;11504;43.334;21.918;2023-12-20T18:49:33;7.6;100.0
22674;DHT22;11504;43.334;21.918;2023-12-20T18:54:11;7.6;100.0
22674;DHT22;11504;43.334;21.918;2023-12-20T18:58:47;7.6;100.0
22674;DHT22;11504;43.334;21.918;2023-12-20T19:03:23;7.6;100.0
22674;DHT22;11504;43.334;21.918;2023-12-20T19:08:00;7.5;100.0
22674;DHT22;11504;43.334;21.918;2023-12-20T19:12:36;7.5;100.0
22674;DHT22;11504;43.334;21.918;2023-12-20T19:17:13;7.4;100.0
22674;DHT22;11504;43.334;21.918;2023-12-20T19:21:49;7.4;100.0
22674;DHT22;11504;43.334;21.918;2023-12-20T19:26:25;7.4;100.0
22674;DHT22;11504;43.334;21.918;2023-12-20T19:31:02;7.4;100.0
22674;DHT22;11504;43.334;21.918;2023-12-20T19:35:39;7.4;100.0
22674;DHT22;11504;43.334;21.918;2023-12-20T19:40:16;7.4;100.0
22674;DHT22;11504;43.334;21.918;2023-12-20T19:44:52;7.3;100.0
22674;DHT22;11504;43.334;21.918;2023-12-20T19:49:28;7.3;100.0
22674;DHT22;11504;43.334;21.918;2023-12-20T19:54:05;7.3;100.0
22674;DHT22;11504;43.334;21.918;2023-12-20T19:58:41;7.2;100.0
22674;DHT22;11504;43.334;21.918;2023-12-20T20:03:17;7.2;100.0
22674;DHT22;11504;43.334;21.918;2023-12-20T20:07:54;7.1;100.0
22674;DHT22;11504;43.334;21.918;2023-12-20T20:12:30;7.1;100.0
22674;DHT22;11504;43.334;21.918;2023-12-20T20:17:07;7.0;100.0
22674;DHT22;11504;43.334;21.918;2023-12-20T20:21:43;7.0;100.0
22674;DHT22;11504;43.334;21.918;2023-12-20T20:26:20;6.9;100.0
22674;DHT22;11504;43.334;21.918;2023-12-20T20:30:57;6.9;100.0
22674;DHT22;11504;43.334;21.918;2023-12-20T20:35:33;7.0;100.0
22674;DHT22;11504;43.334;21.918;2023-12-20T20:40:10;7.0;100.0
22674;DHT22;11504;43.334;21.918;2023-12-20T20:44:47;7.0;100.0
22674;DHT22;11504;43.334;21.918;2023-12-20T20:49:23;7.0;100.0
22674;DHT22;11504;43.334;21.918;2023-12-20T20:53:59;7.0;100.0
22674;DHT22;11504;43.334;21.918;2023-12-20T20:58:37;7.1;100.0
22674;DHT22;11504;43.334;21.918;2023-12-20T21:03:13;7.1;100.0
22674;DHT22;11504;43.334;21.918;2023-12-20T21:07:49;7.2;100.0
22674;DHT22;11504;43.334;21.918;2023-12-20T21:12:26;7.2;100.0
22674;DHT22;11504;43.334;21.918;2023-12-20T21:17:03;7.2;100.0
22674;DHT22;11504;43.334;21.918;2023-12-20T21:21:40;7.2;100.0
22674;DHT22;11504;43.334;21.918;2023-12-20T21:26:16;7.2;100.0
22674;DHT22;11504;43.334;21.918;2023-12-20T21:30:52;7.2;100.0
22674;DHT22;11504;43.334;21.918;2023-12-20T21:35:29;7.2;100.0
22674;DHT22;11504;43.334;21.918;2023-12-20T21:40:08;7.2;100.0
22674;DHT22;11504;43.334;21.918;2023-12-20T21:44:47;7.2;100.0
22674;DHT22;11504;43.334;21.918;2023-12-20T21:49:23;7.1;100.0
22674;DHT22;11504;43.334;21.918;2023-12-20T21:53:59;7.1;100.0
22674;DHT22;11504;43.334;21.918;2023-12-20T21:58:36;7.0;100.0
22674;DHT22;11504;43.334;21.918;2023-12-20T22:03:13;7.0;100.0
22674;DHT22;11504;43.334;21.918;2023-12-20T22:07:49;6.9;100.0
22674;DHT22;11504;43.334;21.918;2023-12-20T22:12:26;6.9;100.0
22674;DHT22;11504;43.334;21.918;2023-12-20T22:17:03;6.9;100.0
22674;DHT22;11504;43.334;21.918;2023-12-20T22:21:40;6.9;100.0
22674;DHT22;11504;43.334;21.918;2023-12-20T22:26:16;6.9;100.0
22674;DHT22;11504;43.334;21.918;2023-12-20T22:30:52;6.9;100.0
22674;DHT22;11504;43.334;21.918;2023-12-20T22:35:28;6.9;100.0
22674;DHT22;11504;43.334;21.918;2023-12-20T22:40:08;6.9;100.0
22674;DHT22;11504;43.334;21.918;2023-12-20T22:44:47;6.9;100.0
22674;DHT22;11504;43.334;21.918;2023-12-20T22:49:23;6.9;100.0
22674;DHT22;11504;43.334;21.918;2023-12-20T22:54:00;6.9;100.0
22674;DHT22;11504;43.334;21.918;2023-12-20T22:58:37;6.9;100.0
22674;DHT22;11504;43.334;21.918;2023-12-20T23:03:14;6.9;100.0
22674;DHT22;11504;43.334;21.918;2023-12-20T23:07:51;6.9;100.0
22674;DHT22;11504;43.334;21.918;2023-12-20T23:12:27;6.9;100.0
22674;DHT22;11504;43.334;21.918;2023-12-20T23:17:03;6.9;100.0
22674;DHT22;11504;43.334;21.918;2023-12-20T23:21:39;6.9;100.0
22674;DHT22;11504;43.334;21.918;2023-12-20T23:26:15;6.9;100.0
22674;DHT22;11504;43.334;21.918;2023-12-20T23:30:52;6.9;100.0
22674;DHT22;11504;43.334;21.918;2023-12-20T23:35:28;6.9;100.0
22674;DHT22;11504;43.334;21.918;2023-12-20T23:40:07;6.9;100.0
22674;DHT22;11504;43.334;21.918;2023-12-20T23:44:44;6.9;100.0
22674;DHT22;11504;43.334;21.918;2023-12-20T23:49:20;6.9;100.0
22674;DHT22;11504;43.334;21.918;2023-12-20T23:53:57;6.9;100.0
22674;DHT22;11504;43.334;21.918;2023-12-20T23:58:33;6.9;100.0
